sensor_id;sensor_type;location;lat;lon;timestamp;pressure;altitude;pressure_sealevel;temperature;humidity
61908;BME280;47864;52.526;19.672;2022-07-23T00:01:30;100910.31;;;20.46;100.00
61908;BME280;47864;52.526;19.672;2022-07-23T00:03:32;100908.84;;;20.43;100.00
61908;BME280;47864;52.526;19.672;2022-07-23T00:05:34;100916.53;;;20.46;100.00
61908;BME280;47864;52.526;19.672;2022-07-23T00:07:38;100906.38;;;20.42;100.00
61908;BME280;47864;52.526;19.672;2022-07-23T00:09:40;100915.69;;;20.46;100.00
61908;BME280;47864;52.526;19.672;2022-07-23T00:11:42;100914.47;;;20.42;100.00
61908;BME280;47864;52.526;19.672;2022-07-23T00:13:44;100910.13;;;20.41;100.00
61908;BME280;47864;52.526;19.672;2022-07-23T00:15:45;100910.50;;;20.44;100.00
61908;BME280;47864;52.526;19.672;2022-07-23T00:17:48;100906.78;;;20.45;100.00
61908;BME280;47864;52.526;19.672;2022-07-23T00:19:50;100911.34;;;20.45;100.00
61908;BME280;47864;52.526;19.672;2022-07-23T00:21:51;100912.81;;;20.41;100.00
61908;BME280;47864;52.526;19.672;2022-07-23T00:23:53;100911.75;;;20.35;100.00
61908;BME280;47864;52.526;19.672;2022-07-23T00:25:55;100917.31;;;20.21;100.00
61908;BME280;47864;52.526;19.672;2022-07-23T00:27:58;100924.97;;;20.10;100.00
61908;BME280;47864;52.526;19.672;2022-07-23T00:30:01;100918.53;;;20.05;100.00
61908;BME280;47864;52.526;19.672;2022-07-23T00:32:03;100917.91;;;19.96;100.00
61908;BME280;47864;52.526;19.672;2022-07-23T00:34:04;100909.19;;;19.88;100.00
61908;BME280;47864;52.526;19.672;2022-07-23T00:36:07;100921.16;;;19.79;100.00
61908;BME280;47864;52.526;19.672;2022-07-23T00:38:10;100920.53;;;19.70;100.00
61908;BME280;47864;52.526;19.672;2022-07-23T00:40:12;100920.75;;;19.75;100.00
61908;BME280;47864;52.526;19.672;2022-07-23T00:42:14;100921.78;;;19.74;100.00
61908;BME280;47864;52.526;19.672;2022-07-23T00:44:23;100926.56;;;19.85;100.00
61908;BME280;47864;52.526;19.672;2022-07-23T00:46:25;100923.69;;;19.87;100.00
61908;BME280;47864;52.526;19.672;2022-07-23T00:48:27;100925.34;;;19.88;100.00
61908;BME280;47864;52.526;19.672;2022-07-23T00:50:29;100927.81;;;19.83;100.00
61908;BME280;47864;52.526;19.672;2022-07-23T00:52:32;100930.06;;;19.72;100.00
61908;BME280;47864;52.526;19.672;2022-07-23T00:54:34;100917.84;;;19.70;100.00
61908;BME280;47864;52.526;19.672;2022-07-23T00:56:37;100927.19;;;19.74;100.00
61908;BME280;47864;52.526;19.672;2022-07-23T00:58:41;100939.16;;;19.65;100.00
61908;BME280;47864;52.526;19.672;2022-07-23T01:00:44;100944.34;;;19.66;100.00
61908;BME280;47864;52.526;19.672;2022-07-23T01:02:46;100931.72;;;19.67;100.00
61908;BME280;47864;52.526;19.672;2022-07-23T01:04:49;100928.56;;;19.57;100.00
61908;BME280;47864;52.526;19.672;2022-07-23T01:06:51;100937.66;;;19.49;100.00
61908;BME280;47864;52.526;19.672;2022-07-23T01:08:54;100928.88;;;19.41;100.00
61908;BME280;47864;52.526;19.672;2022-07-23T01:10:56;100931.97;;;19.37;100.00
61908;BME280;47864;52.526;19.672;2022-07-23T01:13:01;100937.13;;;19.32;100.00
61908;BME280;47864;52.526;19.672;2022-07-23T01:15:03;100941.66;;;19.32;100.00
61908;BME280;47864;52.526;19.672;2022-07-23T01:17:05;100941.66;;;19.32;100.00
61908;BME280;47864;52.526;19.672;2022-07-23T01:19:07;100939.63;;;19.34;100.00
61908;BME280;47864;52.526;19.672;2022-07-23T01:21:11;100929.47;;;19.36;100.00
61908;BME280;47864;52.526;19.672;2022-07-23T01:23:13;100938.19;;;19.45;100.00
61908;BME280;47864;52.526;19.672;2022-07-23T01:25:16;100939.22;;;19.44;100.00
61908;BME280;47864;52.526;19.672;2022-07-23T01:27:17;100935.94;;;19.42;100.00
61908;BME280;47864;52.526;19.672;2022-07-23T01:29:20;100921.38;;;19.36;100.00
61908;BME280;47864;52.526;19.672;2022-07-23T01:31:22;100932.81;;;19.45;100.00
61908;BME280;47864;52.526;19.672;2022-07-23T01:33:29;100934.31;;;19.47;100.00
61908;BME280;47864;52.526;19.672;2022-07-23T01:35:31;100922.03;;;19.38;100.00
61908;BME280;47864;52.526;19.672;2022-07-23T01:37:33;100926.19;;;19.41;100.00
61908;BME280;47864;52.526;19.672;2022-07-23T01:39:35;100928.25;;;19.45;100.00
61908;BME280;47864;52.526;19.672;2022-07-23T01:41:37;100924.59;;;19.53;100.00
61908;BME280;47864;52.526;19.672;2022-07-23T01:43:40;100913.75;;;19.39;100.00
61908;BME280;47864;52.526;19.672;2022-07-23T01:45:42;100930.94;;;19.38;100.00
61908;BME280;47864;52.526;19.672;2022-07-23T01:47:44;100928.88;;;19.41;100.00
61908;BME280;47864;52.526;19.672;2022-07-23T01:49:46;100928.03;;;19.33;100.00
61908;BME280;47864;52.526;19.672;2022-07-23T01:51:48;100925.09;;;19.28;100.00
61908;BME280;47864;52.526;19.672;2022-07-23T01:53:50;100925.06;;;19.22;100.00
61908;BME280;47864;52.526;19.672;2022-07-23T01:55:52;100928.28;;;19.11;100.00
61908;BME280;47864;52.526;19.672;2022-07-23T01:57:53;100927.03;;;19.07;100.00
61908;BME280;47864;52.526;19.672;2022-07-23T01:59:55;100924.59;;;19.12;100.00
61908;BME280;47864;52.526;19.672;2022-07-23T02:02:01;100923.97;;;19.10;100.00
61908;BME280;47864;52.526;19.672;2022-07-23T02:04:05;100921.91;;;19.12;100.00
61908;BME280;47864;52.526;19.672;2022-07-23T02:06:07;100910.09;;;19.13;100.00
61908;BME280;47864;52.526;19.672;2022-07-23T02:08:09;100920.91;;;19.19;100.00
61908;BME280;47864;52.526;19.672;2022-07-23T02:10:11;100913.53;;;18.93;100.00
61908;BME280;47864;52.526;19.672;2022-07-23T02:12:12;100928.88;;;18.99;100.00
61908;BME280;47864;52.526;19.672;2022-07-23T02:14:14;100911.28;;;18.97;100.00
61908;BME280;47864;52.526;19.672;2022-07-23T02:16:16;100914.94;;;18.89;100.00
61908;BME280;47864;52.526;19.672;2022-07-23T02:18:18;100911.88;;;18.65;100.00
61908;BME280;47864;52.526;19.672;2022-07-23T02:20:20;100921.28;;;18.75;100.00
61908;BME280;47864;52.526;19.672;2022-07-23T02:22:22;100902.41;;;18.69;100.00
61908;BME280;47864;52.526;19.672;2022-07-23T02:24:23;100901.44;;;18.76;100.00
61908;BME280;47864;52.526;19.672;2022-07-23T02:26:25;100915.56;;;18.85;100.00
61908;BME280;47864;52.526;19.672;2022-07-23T02:28:27;100906.88;;;18.89;100.00
61908;BME280;47864;52.526;19.672;2022-07-23T02:30:29;100913.25;;;18.82;100.00
61908;BME280;47864;52.526;19.672;2022-07-23T02:32:31;100912.06;;;18.91;100.00
61908;BME280;47864;52.526;19.672;2022-07-23T02:34:33;100921.34;;;18.88;100.00
61908;BME280;47864;52.526;19.672;2022-07-23T02:36:35;100918.59;;;18.75;100.00
61908;BME280;47864;52.526;19.672;2022-07-23T02:38:37;100922.88;;;18.70;100.00
61908;BME280;47864;52.526;19.672;2022-07-23T02:40:39;100921.38;;;18.60;100.00
61908;BME280;47864;52.526;19.672;2022-07-23T02:42:41;100917.03;;;18.59;100.00
61908;BME280;47864;52.526;19.672;2022-07-23T02:44:44;100920.19;;;18.70;100.00
61908;BME280;47864;52.526;19.672;2022-07-23T02:46:46;100917.84;;;18.60;100.00
61908;BME280;47864;52.526;19.672;2022-07-23T02:48:48;100916.00;;;18.60;100.00
61908;BME280;47864;52.526;19.672;2022-07-23T02:50:50;100904.31;;;18.53;100.00
61908;BME280;47864;52.526;19.672;2022-07-23T02:52:51;100920.09;;;18.56;100.00
61908;BME280;47864;52.526;19.672;2022-07-23T02:54:53;100921.59;;;18.66;100.00
61908;BME280;47864;52.526;19.672;2022-07-23T02:56:55;100903.97;;;18.56;100.00
61908;BME280;47864;52.526;19.672;2022-07-23T02:58:57;100916.13;;;18.52;100.00
61908;BME280;47864;52.526;19.672;2022-07-23T03:00:59;100917.00;;;18.38;100.00
61908;BME280;47864;52.526;19.672;2022-07-23T03:03:02;100906.22;;;18.32;100.00
61908;BME280;47864;52.526;19.672;2022-07-23T03:05:04;100924.69;;;18.41;100.00
61908;BME280;47864;52.526;19.672;2022-07-23T03:07:06;100917.34;;;18.29;100.00
61908;BME280;47864;52.526;19.672;2022-07-23T03:09:08;100917.94;;;18.24;100.00
61908;BME280;47864;52.526;19.672;2022-07-23T03:11:10;100920.63;;;18.24;100.00
61908;BME280;47864;52.526;19.672;2022-07-23T03:13:11;100913.91;;;18.13;100.00
61908;BME280;47864;52.526;19.672;2022-07-23T03:15:13;100919.72;;;18.17;100.00
61908;BME280;47864;52.526;19.672;2022-07-23T03:17:15;100910.72;;;18.03;100.00
61908;BME280;47864;52.526;19.672;2022-07-23T03:19:17;100926.94;;;18.16;100.00
61908;BME280;47864;52.526;19.672;2022-07-23T03:21:19;100915.97;;;18.11;100.00
61908;BME280;47864;52.526;19.672;2022-07-23T03:23:20;100940.56;;;18.15;100.00
61908;BME280;47864;52.526;19.672;2022-07-23T03:25:22;100939.06;;;18.12;100.00
61908;BME280;47864;52.526;19.672;2022-07-23T03:27:27;100922.00;;;17.99;100.00
61908;BME280;47864;52.526;19.672;2022-07-23T03:29:29;100930.47;;;18.17;100.00
61908;BME280;47864;52.526;19.672;2022-07-23T03:31:31;100906.25;;;18.10;100.00
61908;BME280;47864;52.526;19.672;2022-07-23T03:33:33;100922.84;;;18.20;100.00
61908;BME280;47864;52.526;19.672;2022-07-23T03:35:35;100906.94;;;18.19;100.00
61908;BME280;47864;52.526;19.672;2022-07-23T03:37:36;100912.75;;;18.22;100.00
61908;BME280;47864;52.526;19.672;2022-07-23T03:39:39;100904.88;;;18.21;100.00
61908;BME280;47864;52.526;19.672;2022-07-23T03:41:41;100909.81;;;18.17;100.00
61908;BME280;47864;52.526;19.672;2022-07-23T03:43:42;100918.94;;;18.23;100.00
61908;BME280;47864;52.526;19.672;2022-07-23T03:45:44;100922.91;;;18.27;100.00
61908;BME280;47864;52.526;19.672;2022-07-23T03:47:46;100904.25;;;18.19;100.00
61908;BME280;47864;52.526;19.672;2022-07-23T03:49:49;100906.53;;;18.22;100.00
61908;BME280;47864;52.526;19.672;2022-07-23T03:51:51;100913.63;;;18.30;100.00
61908;BME280;47864;52.526;19.672;2022-07-23T03:53:53;100907.66;;;18.28;100.00
61908;BME280;47864;52.526;19.672;2022-07-23T03:55:55;100916.63;;;18.41;100.00
61908;BME280;47864;52.526;19.672;2022-07-23T03:57:57;100919.19;;;18.49;100.00
61908;BME280;47864;52.526;19.672;2022-07-23T03:59:59;100919.13;;;18.43;100.00
61908;BME280;47864;52.526;19.672;2022-07-23T04:02:00;100909.41;;;18.42;100.00
61908;BME280;47864;52.526;19.672;2022-07-23T04:04:03;100919.19;;;18.49;100.00
61908;BME280;47864;52.526;19.672;2022-07-23T04:06:05;100918.53;;;18.47;100.00
61908;BME280;47864;52.526;19.672;2022-07-23T04:08:07;100925.47;;;18.56;100.00
61908;BME280;47864;52.526;19.672;2022-07-23T04:10:09;100920.97;;;18.63;100.00
61908;BME280;47864;52.526;19.672;2022-07-23T04:12:11;100903.19;;;18.62;100.00
61908;BME280;47864;52.526;19.672;2022-07-23T04:14:13;100921.47;;;18.74;100.00
61908;BME280;47864;52.526;19.672;2022-07-23T04:16:15;100932.91;;;18.82;100.00
61908;BME280;47864;52.526;19.672;2022-07-23T04:18:17;100927.56;;;18.89;100.00
61908;BME280;47864;52.526;19.672;2022-07-23T04:20:19;100921.38;;;18.95;100.00
61908;BME280;47864;52.526;19.672;2022-07-23T04:22:21;100910.06;;;18.99;100.00
61908;BME280;47864;52.526;19.672;2022-07-23T04:24:23;100921.50;;;19.15;100.00
61908;BME280;47864;52.526;19.672;2022-07-23T04:26:24;100921.16;;;19.24;100.00
61908;BME280;47864;52.526;19.672;2022-07-23T04:28:26;100910.59;;;19.23;100.00
61908;BME280;47864;52.526;19.672;2022-07-23T04:30:28;100912.94;;;19.46;100.00
61908;BME280;47864;52.526;19.672;2022-07-23T04:32:30;100916.97;;;19.63;100.00
61908;BME280;47864;52.526;19.672;2022-07-23T04:34:32;100919.91;;;19.68;100.00
61908;BME280;47864;52.526;19.672;2022-07-23T04:36:34;100898.16;;;19.63;100.00
61908;BME280;47864;52.526;19.672;2022-07-23T04:38:36;100915.59;;;19.87;100.00
61908;BME280;47864;52.526;19.672;2022-07-23T04:40:38;100907.31;;;19.95;100.00
61908;BME280;47864;52.526;19.672;2022-07-23T04:42:40;100902.38;;;20.11;100.00
61908;BME280;47864;52.526;19.672;2022-07-23T04:44:41;100900.53;;;20.32;100.00
61908;BME280;47864;52.526;19.672;2022-07-23T04:46:43;100898.28;;;20.55;100.00
61908;BME280;47864;52.526;19.672;2022-07-23T04:48:46;100886.63;;;20.87;100.00
61908;BME280;47864;52.526;19.672;2022-07-23T04:50:47;100883.00;;;21.26;100.00
61908;BME280;47864;52.526;19.672;2022-07-23T04:52:50;100898.69;;;21.49;100.00
61908;BME280;47864;52.526;19.672;2022-07-23T04:54:52;100906.06;;;21.16;100.00
61908;BME280;47864;52.526;19.672;2022-07-23T04:56:54;100887.69;;;20.80;100.00
61908;BME280;47864;52.526;19.672;2022-07-23T04:58:55;100891.13;;;21.00;100.00
61908;BME280;47864;52.526;19.672;2022-07-23T05:00:57;100889.03;;;21.09;100.00
61908;BME280;47864;52.526;19.672;2022-07-23T05:02:59;100893.38;;;21.10;100.00
61908;BME280;47864;52.526;19.672;2022-07-23T05:05:01;100899.84;;;21.22;100.00
61908;BME280;47864;52.526;19.672;2022-07-23T05:07:03;100878.47;;;21.14;100.00
61908;BME280;47864;52.526;19.672;2022-07-23T05:09:05;100899.72;;;21.48;100.00
61908;BME280;47864;52.526;19.672;2022-07-23T05:11:07;100897.03;;;21.48;100.00
61908;BME280;47864;52.526;19.672;2022-07-23T05:13:09;100900.91;;;21.59;100.00
61908;BME280;47864;52.526;19.672;2022-07-23T05:15:11;100895.28;;;21.60;100.00
61908;BME280;47864;52.526;19.672;2022-07-23T05:17:13;100903.25;;;21.42;100.00
61908;BME280;47864;52.526;19.672;2022-07-23T05:19:15;100901.69;;;21.73;100.00
61908;BME280;47864;52.526;19.672;2022-07-23T05:21:16;100905.06;;;21.99;100.00
61908;BME280;47864;52.526;19.672;2022-07-23T05:23:19;100888.41;;;22.02;100.00
61908;BME280;47864;52.526;19.672;2022-07-23T05:25:20;100886.38;;;21.91;100.00
61908;BME280;47864;52.526;19.672;2022-07-23T05:27:22;100892.47;;;22.18;100.00
61908;BME280;47864;52.526;19.672;2022-07-23T05:29:24;100895.94;;;22.50;100.00
61908;BME280;47864;52.526;19.672;2022-07-23T05:31:26;100898.91;;;22.67;100.00
61908;BME280;47864;52.526;19.672;2022-07-23T05:33:28;100885.88;;;22.57;100.00
61908;BME280;47864;52.526;19.672;2022-07-23T05:35:30;100875.88;;;22.83;100.00
61908;BME280;47864;52.526;19.672;2022-07-23T05:37:32;100889.88;;;23.16;100.00
61908;BME280;47864;52.526;19.672;2022-07-23T05:39:34;100876.63;;;23.26;100.00
61908;BME280;47864;52.526;19.672;2022-07-23T05:41:36;100891.53;;;23.54;100.00
61908;BME280;47864;52.526;19.672;2022-07-23T05:43:37;100873.69;;;23.46;100.00
61908;BME280;47864;52.526;19.672;2022-07-23T05:45:39;100882.63;;;23.46;100.00
61908;BME280;47864;52.526;19.672;2022-07-23T05:47:47;100877.88;;;23.60;100.00
61908;BME280;47864;52.526;19.672;2022-07-23T05:49:50;100887.03;;;23.77;100.00
61908;BME280;47864;52.526;19.672;2022-07-23T05:51:51;100896.16;;;24.06;100.00
61908;BME280;47864;52.526;19.672;2022-07-23T05:53:53;100892.81;;;24.22;100.00
61908;BME280;47864;52.526;19.672;2022-07-23T05:55:55;100892.28;;;24.44;98.88
61908;BME280;47864;52.526;19.672;2022-07-23T05:57:58;100895.56;;;24.34;99.09
61908;BME280;47864;52.526;19.672;2022-07-23T06:00:00;100884.81;;;24.39;98.56
61908;BME280;47864;52.526;19.672;2022-07-23T06:02:02;100883.06;;;24.45;96.46
61908;BME280;47864;52.526;19.672;2022-07-23T06:04:04;100884.00;;;24.74;96.18
61908;BME280;47864;52.526;19.672;2022-07-23T06:06:06;100898.63;;;24.73;95.34
61908;BME280;47864;52.526;19.672;2022-07-23T06:08:08;100886.25;;;24.77;93.55
61908;BME280;47864;52.526;19.672;2022-07-23T06:10:10;100871.84;;;24.64;96.45
61908;BME280;47864;52.526;19.672;2022-07-23T06:12:12;100873.16;;;24.97;92.15
61908;BME280;47864;52.526;19.672;2022-07-23T06:14:14;100888.75;;;25.42;90.33
61908;BME280;47864;52.526;19.672;2022-07-23T06:16:16;100883.53;;;25.80;87.89
61908;BME280;47864;52.526;19.672;2022-07-23T06:18:18;100875.75;;;26.17;84.01
61908;BME280;47864;52.526;19.672;2022-07-23T06:20:20;100868.50;;;26.23;83.20
61908;BME280;47864;52.526;19.672;2022-07-23T06:22:22;100876.97;;;26.93;82.37
61908;BME280;47864;52.526;19.672;2022-07-23T06:24:24;100855.84;;;27.27;76.01
61908;BME280;47864;52.526;19.672;2022-07-23T06:26:26;100863.88;;;27.87;74.28
61908;BME280;47864;52.526;19.672;2022-07-23T06:28:28;100873.78;;;27.67;72.86
61908;BME280;47864;52.526;19.672;2022-07-23T06:30:30;100885.66;;;27.34;74.19
61908;BME280;47864;52.526;19.672;2022-07-23T06:32:32;100861.44;;;27.15;71.94
61908;BME280;47864;52.526;19.672;2022-07-23T06:34:33;100876.03;;;27.26;73.91
61908;BME280;47864;52.526;19.672;2022-07-23T06:36:36;100870.69;;;27.58;71.91
61908;BME280;47864;52.526;19.672;2022-07-23T06:38:39;100869.44;;;27.71;72.87
61908;BME280;47864;52.526;19.672;2022-07-23T06:40:40;100870.25;;;28.25;70.18
61908;BME280;47864;52.526;19.672;2022-07-23T06:42:42;100876.19;;;28.54;67.74
61908;BME280;47864;52.526;19.672;2022-07-23T06:44:44;100860.94;;;28.58;65.00
61908;BME280;47864;52.526;19.672;2022-07-23T06:46:46;100872.31;;;28.45;64.84
61908;BME280;47864;52.526;19.672;2022-07-23T06:48:48;100870.91;;;28.42;63.88
61908;BME280;47864;52.526;19.672;2022-07-23T06:50:50;100869.75;;;28.75;62.13
61908;BME280;47864;52.526;19.672;2022-07-23T06:52:51;100856.94;;;29.28;61.23
61908;BME280;47864;52.526;19.672;2022-07-23T06:54:53;100847.75;;;29.54;56.97
61908;BME280;47864;52.526;19.672;2022-07-23T06:56:56;100857.44;;;28.67;60.22
61908;BME280;47864;52.526;19.672;2022-07-23T06:58:58;100862.84;;;29.04;58.68
61908;BME280;47864;52.526;19.672;2022-07-23T07:01:00;100843.94;;;29.85;55.58
61908;BME280;47864;52.526;19.672;2022-07-23T07:03:02;100854.38;;;30.19;55.28
61908;BME280;47864;52.526;19.672;2022-07-23T07:05:05;100848.63;;;30.31;54.43
61908;BME280;47864;52.526;19.672;2022-07-23T07:07:07;100852.13;;;29.65;53.69
61908;BME280;47864;52.526;19.672;2022-07-23T07:09:09;100855.53;;;29.20;52.94
61908;BME280;47864;52.526;19.672;2022-07-23T07:11:11;100856.78;;;29.65;51.69
61908;BME280;47864;52.526;19.672;2022-07-23T07:13:13;100854.63;;;30.33;50.20
61908;BME280;47864;52.526;19.672;2022-07-23T07:15:15;100865.28;;;29.83;51.19
61908;BME280;47864;52.526;19.672;2022-07-23T07:17:17;100864.19;;;29.84;51.08
61908;BME280;47864;52.526;19.672;2022-07-23T07:19:19;100868.88;;;30.24;48.79
61908;BME280;47864;52.526;19.672;2022-07-23T07:21:21;100863.41;;;29.99;46.75
61908;BME280;47864;52.526;19.672;2022-07-23T07:23:23;100854.34;;;30.49;47.58
61908;BME280;47864;52.526;19.672;2022-07-23T07:25:25;100858.66;;;30.86;44.71
61908;BME280;47864;52.526;19.672;2022-07-23T07:27:27;100871.81;;;29.62;44.76
61908;BME280;47864;52.526;19.672;2022-07-23T07:29:29;100867.28;;;29.26;44.14
61908;BME280;47864;52.526;19.672;2022-07-23T07:31:31;100869.63;;;29.59;44.55
61908;BME280;47864;52.526;19.672;2022-07-23T07:33:33;100873.53;;;29.94;44.16
61908;BME280;47864;52.526;19.672;2022-07-23T07:35:35;100865.53;;;29.67;46.15
61908;BME280;47864;52.526;19.672;2022-07-23T07:37:37;100869.16;;;30.23;44.88
61908;BME280;47864;52.526;19.672;2022-07-23T07:39:38;100882.00;;;30.48;46.10
61908;BME280;47864;52.526;19.672;2022-07-23T07:41:40;100881.75;;;30.14;46.32
61908;BME280;47864;52.526;19.672;2022-07-23T07:43:42;100884.75;;;30.63;44.70
61908;BME280;47864;52.526;19.672;2022-07-23T07:45:44;100879.53;;;30.56;43.69
61908;BME280;47864;52.526;19.672;2022-07-23T07:47:47;100863.41;;;29.94;42.72
61908;BME280;47864;52.526;19.672;2022-07-23T07:49:49;100863.94;;;30.16;43.82
61908;BME280;47864;52.526;19.672;2022-07-23T07:51:51;100878.97;;;30.39;44.83
61908;BME280;47864;52.526;19.672;2022-07-23T07:53:52;100884.56;;;29.31;47.04
61908;BME280;47864;52.526;19.672;2022-07-23T07:55:55;100874.63;;;30.08;43.68
61908;BME280;47864;52.526;19.672;2022-07-23T07:57:57;100864.75;;;29.92;45.16
61908;BME280;47864;52.526;19.672;2022-07-23T08:00:07;100874.00;;;29.75;44.76
61908;BME280;47864;52.526;19.672;2022-07-23T08:02:09;100868.06;;;30.14;43.87
61908;BME280;47864;52.526;19.672;2022-07-23T08:04:15;100843.72;;;30.22;44.82
61908;BME280;47864;52.526;19.672;2022-07-23T08:06:17;100875.16;;;30.71;42.20
61908;BME280;47864;52.526;19.672;2022-07-23T08:08:21;100869.94;;;30.49;41.02
61908;BME280;47864;52.526;19.672;2022-07-23T08:10:24;100862.81;;;30.48;40.39
61908;BME280;47864;52.526;19.672;2022-07-23T08:12:26;100856.97;;;31.00;39.14
61908;BME280;47864;52.526;19.672;2022-07-23T08:14:28;100850.16;;;30.92;38.98
61908;BME280;47864;52.526;19.672;2022-07-23T08:16:30;100862.34;;;31.30;39.22
61908;BME280;47864;52.526;19.672;2022-07-23T08:18:52;100841.19;;;29.90;38.97
61908;BME280;47864;52.526;19.672;2022-07-23T08:20:54;100852.72;;;30.28;39.95
61908;BME280;47864;52.526;19.672;2022-07-23T08:22:59;100840.63;;;30.64;39.82
61908;BME280;47864;52.526;19.672;2022-07-23T08:25:01;100839.53;;;30.66;39.00
61908;BME280;47864;52.526;19.672;2022-07-23T08:27:03;100858.41;;;30.77;40.40
61908;BME280;47864;52.526;19.672;2022-07-23T08:29:05;100862.44;;;31.00;40.18
61908;BME280;47864;52.526;19.672;2022-07-23T08:31:06;100855.41;;;30.74;41.55
61908;BME280;47864;52.526;19.672;2022-07-23T08:33:11;100845.03;;;30.66;40.07
61908;BME280;47864;52.526;19.672;2022-07-23T08:35:36;100853.97;;;30.96;39.69
61908;BME280;47864;52.526;19.672;2022-07-23T08:37:38;100855.97;;;30.66;37.93
61908;BME280;47864;52.526;19.672;2022-07-23T08:39:40;100849.59;;;30.95;38.56
61908;BME280;47864;52.526;19.672;2022-07-23T08:41:42;100850.34;;;31.21;39.09
61908;BME280;47864;52.526;19.672;2022-07-23T08:43:44;100849.91;;;31.48;38.71
61908;BME280;47864;52.526;19.672;2022-07-23T08:45:47;100847.53;;;31.31;37.76
61908;BME280;47864;52.526;19.672;2022-07-23T08:47:51;100846.06;;;30.85;38.58
61908;BME280;47864;52.526;19.672;2022-07-23T08:49:54;100853.41;;;31.05;39.41
61908;BME280;47864;52.526;19.672;2022-07-23T08:51:57;100834.22;;;30.99;38.84
61908;BME280;47864;52.526;19.672;2022-07-23T08:53:59;100860.25;;;31.07;39.37
61908;BME280;47864;52.526;19.672;2022-07-23T08:56:02;100844.84;;;31.21;38.67
61908;BME280;47864;52.526;19.672;2022-07-23T08:58:05;100839.59;;;30.55;39.51
61908;BME280;47864;52.526;19.672;2022-07-23T09:00:08;100828.22;;;30.92;39.81
61908;BME280;47864;52.526;19.672;2022-07-23T09:02:10;100834.91;;;31.30;39.27
61908;BME280;47864;52.526;19.672;2022-07-23T09:04:13;100833.94;;;31.11;38.57
61908;BME280;47864;52.526;19.672;2022-07-23T09:06:18;100801.91;;;30.91;39.02
61908;BME280;47864;52.526;19.672;2022-07-23T09:08:23;100833.19;;;30.85;38.55
61908;BME280;47864;52.526;19.672;2022-07-23T09:10:25;100827.94;;;30.94;39.85
61908;BME280;47864;52.526;19.672;2022-07-23T09:12:28;100828.81;;;31.44;39.44
61908;BME280;47864;52.526;19.672;2022-07-23T09:14:41;100825.31;;;31.33;37.53
61908;BME280;47864;52.526;19.672;2022-07-23T09:16:43;100819.34;;;31.70;38.16
61908;BME280;47864;52.526;19.672;2022-07-23T09:18:54;100817.13;;;31.28;38.09
61908;BME280;47864;52.526;19.672;2022-07-23T09:21:12;100816.91;;;31.14;39.06
61908;BME280;47864;52.526;19.672;2022-07-23T09:23:14;100824.81;;;31.26;39.37
61908;BME280;47864;52.526;19.672;2022-07-23T09:25:17;100826.09;;;31.44;38.45
61908;BME280;47864;52.526;19.672;2022-07-23T09:27:20;100823.34;;;31.44;38.46
61908;BME280;47864;52.526;19.672;2022-07-23T09:29:23;100824.03;;;31.15;40.24
61908;BME280;47864;52.526;19.672;2022-07-23T09:31:31;100820.09;;;30.67;40.24
61908;BME280;47864;52.526;19.672;2022-07-23T09:33:34;100822.91;;;30.16;41.06
61908;BME280;47864;52.526;19.672;2022-07-23T09:38:01;100815.47;;;29.66;39.57
61908;BME280;47864;52.526;19.672;2022-07-23T09:40:12;100799.34;;;29.55;39.80
61908;BME280;47864;52.526;19.672;2022-07-23T09:42:15;100813.03;;;29.75;38.64
61908;BME280;47864;52.526;19.672;2022-07-23T09:44:20;100811.41;;;30.24;38.43
61908;BME280;47864;52.526;19.672;2022-07-23T09:46:29;100808.38;;;30.31;39.27
61908;BME280;47864;52.526;19.672;2022-07-23T09:48:30;100806.91;;;30.74;38.70
61908;BME280;47864;52.526;19.672;2022-07-23T09:50:35;100808.31;;;30.72;38.10
61908;BME280;47864;52.526;19.672;2022-07-23T09:52:45;100802.44;;;31.04;37.80
61908;BME280;47864;52.526;19.672;2022-07-23T09:54:57;100804.75;;;31.30;38.62
61908;BME280;47864;52.526;19.672;2022-07-23T09:57:05;100803.41;;;30.58;38.92
61908;BME280;47864;52.526;19.672;2022-07-23T09:59:07;100805.56;;;30.67;39.51
61908;BME280;47864;52.526;19.672;2022-07-23T10:01:13;100789.75;;;30.53;38.83
61908;BME280;47864;52.526;19.672;2022-07-23T10:03:20;100808.91;;;30.63;40.61
61908;BME280;47864;52.526;19.672;2022-07-23T10:05:25;100803.41;;;30.48;39.10
61908;BME280;47864;52.526;19.672;2022-07-23T10:07:31;100806.75;;;30.30;41.11
61908;BME280;47864;52.526;19.672;2022-07-23T10:09:36;100806.84;;;30.89;39.88
61908;BME280;47864;52.526;19.672;2022-07-23T10:11:38;100790.53;;;31.23;38.64
61908;BME280;47864;52.526;19.672;2022-07-23T10:13:40;100797.63;;;31.79;38.68
61908;BME280;47864;52.526;19.672;2022-07-23T10:15:43;100801.75;;;31.71;38.72
61908;BME280;47864;52.526;19.672;2022-07-23T10:17:45;100778.47;;;31.29;38.37
61908;BME280;47864;52.526;19.672;2022-07-23T10:19:46;100790.38;;;31.49;38.80
61908;BME280;47864;52.526;19.672;2022-07-23T10:21:52;100805.41;;;31.56;38.78
61908;BME280;47864;52.526;19.672;2022-07-23T10:24:08;100810.84;;;31.22;38.65
61908;BME280;47864;52.526;19.672;2022-07-23T10:26:22;100800.63;;;31.33;39.75
61908;BME280;47864;52.526;19.672;2022-07-23T10:33:23;100795.25;;;31.18;38.84
61908;BME280;47864;52.526;19.672;2022-07-23T10:35:36;100790.66;;;30.98;40.00
61908;BME280;47864;52.526;19.672;2022-07-23T10:37:42;100791.34;;;30.49;42.02